Terminal Aerodrome Forecast
Issued by NWS Northern Indiana

Home | Current Version | Previous Version | Graphics & Text | Print | Product List | Glossary On
Versions: 1 2 3 4 5 6 7 8 9 10 11 12 13 14 15 16 17
000
FTUS43 KIWX 230900 AAA
TAFFWA
TAF AMD
KFWA 230909Z 2309/2406 22009KT P6SM -RA VCTS OVC100CB
     FM231100 32010KT P6SM OVC020
     FM231500 32015KT P6SM SCT025
     FM240000 02008KT P6SM SKC=

USA.gov is the U.S. government's official web portal to all federal, state and local government web resources and services.